Time;durP1;ratioP1;P1;durP2;ratioP2;P2;SDS_P1;SDS_P2;PMS_P1;PMS_P2;Temp;Humidity;BMP_temperature;BMP_pressure;BME280_temperature;BME280_humidity;BME280_pressure;Samples;Min_cycle;Max_cycle;Signal;HPM_P1;HPM_P2
2021/09/07 00:02:31;;;;;;;15.77;10.38;;;;;;;;;;6147013;28;20057;-80
2021/09/07 00:05:32;;;;;;;17.75;10.25;;;;;;;;;;6145772;28;20058;-80
2021/09/07 00:08:34;;;;;;;16.67;10.30;;;;;;;;;;6146797;28;20091;-80
2021/09/07 00:11:36;;;;;;;18.93;10.10;;;;;;;;;;6145484;28;20044;-79
2021/09/07 00:14:38;;;;;;;16.52;10.65;;;;;;;;;;6160194;28;20054;-79
2021/09/07 00:17:40;;;;;;;17.67;10.95;;;;;;;;;;6148101;28;20130;-79
2021/09/07 00:20:42;;;;;;;22.80;11.33;;;;;;;;;;6147249;28;20057;-80
2021/09/07 00:23:43;;;;;;;19.17;11.13;;;;;;;;;;6149929;28;20043;-81
2021/09/07 00:26:45;;;;;;;18.52;10.90;;;;;;;;;;6167337;28;20039;-78
2021/09/07 00:29:47;;;;;;;17.38;10.88;;;;;;;;;;6154180;28;20062;-80
2021/09/07 00:32:48;;;;;;;20.52;11.07;;;;;;;;;;6164996;28;20067;-79
2021/09/07 00:35:50;;;;;;;19.10;11.05;;;;;;;;;;6168639;28;20102;-79
2021/09/07 00:38:51;;;;;;;16.23;10.18;;;;;;;;;;6174700;28;20045;-79
2021/09/07 00:41:53;;;;;;;18.00;10.98;;;;;;;;;;6173386;28;20066;-79
2021/09/07 00:44:55;;;;;;;17.23;10.60;;;;;;;;;;6167008;28;20063;-80
2021/09/07 00:47:56;;;;;;;20.25;10.95;;;;;;;;;;6171774;28;20416;-80
2021/09/07 00:50:58;;;;;;;17.52;10.10;;;;;;;;;;6189191;28;20046;-80
2021/09/07 00:54:00;;;;;;;17.23;10.07;;;;;;;;;;6161346;28;20087;-79
2021/09/07 00:57:05;;;;;;;17.17;10.50;;;;;;;;;;6149948;28;20054;-79
2021/09/07 01:00:08;;;;;;;17.60;10.48;;;;;;;;;;6160456;28;20121;-79
2021/09/07 01:03:10;;;;;;;16.70;10.13;;;;;;;;;;6172817;28;20464;-79
2021/09/07 01:06:11;;;;;;;17.02;10.45;;;;;;;;;;6174248;28;20049;-78
2021/09/07 01:09:13;;;;;;;21.48;10.55;;;;;;;;;;6175573;28;20126;-79
2021/09/07 01:12:15;;;;;;;19.50;12.20;;;;;;;;;;6191631;28;20046;-80
2021/09/07 01:15:18;;;;;;;17.40;11.02;;;;;;;;;;6165020;28;20999;-79
2021/09/07 01:18:21;;;;;;;16.15;10.77;;;;;;;;;;6165183;28;20047;-79
2021/09/07 01:21:23;;;;;;;18.48;11.25;;;;;;;;;;6179520;28;20099;-79
2021/09/07 01:24:26;;;;;;;19.20;11.43;;;;;;;;;;6164569;28;20047;-79
2021/09/07 01:27:27;;;;;;;22.05;12.20;;;;;;;;;;6174008;28;20492;-78
2021/09/07 01:30:29;;;;;;;18.25;11.15;;;;;;;;;;6162609;28;20130;-78
2021/09/07 01:33:37;;;;;;;19.02;10.90;;;;;;;;;;6147620;28;20095;-80
2021/09/07 01:36:39;;;;;;;18.40;11.07;;;;;;;;;;6156971;28;20067;-80
2021/09/07 01:39:40;;;;;;;18.95;10.63;;;;;;;;;;6163399;28;20055;-80
2021/09/07 01:42:42;;;;;;;21.13;11.35;;;;;;;;;;6185832;28;20047;-79
2021/09/07 01:45:49;;;;;;;18.15;11.48;;;;;;;;;;6161597;28;20043;-80
2021/09/07 01:48:51;;;;;;;18.33;11.20;;;;;;;;;;6150450;28;20043;-79
2021/09/07 01:51:52;;;;;;;18.83;11.35;;;;;;;;;;6150894;28;20062;-78
2021/09/07 01:54:54;;;;;;;16.38;10.00;;;;;;;;;;6154434;28;20047;-80
2021/09/07 01:57:55;;;;;;;18.02;10.95;;;;;;;;;;6157453;28;20038;-79
2021/09/07 02:00:57;;;;;;;17.83;10.60;;;;;;;;;;6158700;28;20055;-80
2021/09/07 02:04:00;;;;;;;21.65;11.63;;;;;;;;;;6165599;28;20046;-80
2021/09/07 02:07:07;;;;;;;20.48;11.45;;;;;;;;;;6159098;28;20050;-79
2021/09/07 02:10:09;;;;;;;21.23;11.57;;;;;;;;;;6173340;28;20043;-80
2021/09/07 02:13:11;;;;;;;19.50;11.32;;;;;;;;;;6169357;28;20050;-79
2021/09/07 02:16:14;;;;;;;17.83;11.07;;;;;;;;;;6168405;28;20074;-78
2021/09/07 02:19:16;;;;;;;19.17;11.85;;;;;;;;;;6181256;28;20409;-80
2021/09/07 02:22:19;;;;;;;18.75;11.07;;;;;;;;;;6179128;28;20048;-79
2021/09/07 02:25:21;;;;;;;16.43;10.67;;;;;;;;;;6165255;28;20043;-79
2021/09/07 02:28:22;;;;;;;19.33;11.50;;;;;;;;;;6160432;28;20047;-78
2021/09/07 02:31:27;;;;;;;18.83;11.45;;;;;;;;;;6154158;28;20087;-78
2021/09/07 02:34:30;;;;;;;20.55;12.00;;;;;;;;;;6169169;28;20126;-79
2021/09/07 02:37:32;;;;;;;18.75;11.10;;;;;;;;;;6153324;28;20047;-78
2021/09/07 02:40:34;;;;;;;16.23;9.82;;;;;;;;;;6169759;28;20103;-80
2021/09/07 02:43:38;;;;;;;16.77;9.77;;;;;;;;;;6154985;28;20437;-79
2021/09/07 02:46:39;;;;;;;17.63;10.57;;;;;;;;;;6188394;28;20052;-79
2021/09/07 02:49:41;;;;;;;18.23;10.63;;;;;;;;;;6192411;28;20053;-80
2021/09/07 02:52:44;;;;;;;17.95;11.00;;;;;;;;;;6200672;28;20054;-79
2021/09/07 02:55:46;;;;;;;20.45;11.32;;;;;;;;;;6154322;28;20054;-79
2021/09/07 02:58:49;;;;;;;;;;;;;;;;;;6169463;28;20440;-80
2021/09/07 03:01:51;;;;;;;17.25;10.32;;;;;;;;;;6178505;28;19929;-80
2021/09/07 03:04:53;;;;;;;18.70;10.67;;;;;;;;;;6176839;28;20126;-82
2021/09/07 03:07:55;;;;;;;17.23;9.95;;;;;;;;;;6177391;28;20443;-81
2021/09/07 03:10:57;;;;;;;17.25;10.50;;;;;;;;;;6170640;28;20538;-79
2021/09/07 03:13:59;;;;;;;17.42;11.10;;;;;;;;;;6167692;28;20121;-78
2021/09/07 03:17:01;;;;;;;18.20;10.67;;;;;;;;;;6145345;28;20065;-80
2021/09/07 03:20:03;;;;;;;18.70;11.45;;;;;;;;;;6176738;28;20642;-79
2021/09/07 03:23:05;;;;;;;19.67;11.90;;;;;;;;;;6175292;28;20054;-78
2021/09/07 03:26:09;;;;;;;17.40;10.97;;;;;;;;;;6201032;28;20057;-80
2021/09/07 03:29:11;;;;;;;21.73;11.45;;;;;;;;;;6179471;28;20504;-78
2021/09/07 03:32:15;;;;;;;20.80;12.07;;;;;;;;;;6181229;28;20046;-79
2021/09/07 03:35:17;;;;;;;21.98;11.45;;;;;;;;;;6192628;28;20049;-79
2021/09/07 03:38:21;;;;;;;19.98;11.07;;;;;;;;;;6169172;28;20142;-80
2021/09/07 03:41:23;;;;;;;17.77;10.90;;;;;;;;;;6184170;28;20050;-79
2021/09/07 03:44:25;;;;;;;16.80;10.98;;;;;;;;;;6170064;28;20054;-78
2021/09/07 03:47:29;;;;;;;17.70;11.25;;;;;;;;;;6170632;28;20061;-78
2021/09/07 03:50:33;;;;;;;17.88;11.05;;;;;;;;;;6157032;28;20681;-79
2021/09/07 03:53:35;;;;;;;17.55;11.18;;;;;;;;;;6145747;28;20054;-78
2021/09/07 03:56:36;;;;;;;16.88;10.73;;;;;;;;;;6152874;28;20071;-78
2021/09/07 03:59:38;;;;;;;17.17;10.82;;;;;;;;;;6136707;28;20050;-82
2021/09/07 04:02:40;;;;;;;18.75;11.18;;;;;;;;;;6134059;28;20047;-78
2021/09/07 04:05:43;;;;;;;17.65;10.90;;;;;;;;;;6151259;28;20046;-82
2021/09/07 04:08:45;;;;;;;18.50;10.63;;;;;;;;;;6119496;28;20050;-80
2021/09/07 04:11:48;;;;;;;20.63;11.17;;;;;;;;;;6126811;28;20044;-78
2021/09/07 04:14:50;;;;;;;18.02;10.40;;;;;;;;;;6156052;28;20051;-82
2021/09/07 04:17:52;;;;;;;19.80;11.02;;;;;;;;;;6163528;28;20509;-81
2021/09/07 04:20:54;;;;;;;21.80;11.18;;;;;;;;;;6155171;28;20129;-83
2021/09/07 04:23:56;;;;;;;21.23;11.52;;;;;;;;;;6143699;28;20061;-80
2021/09/07 04:26:58;;;;;;;19.20;10.65;;;;;;;;;;6123464;28;20058;-80
2021/09/07 04:30:00;;;;;;;16.23;10.27;;;;;;;;;;6138875;28;20423;-81
2021/09/07 04:33:01;;;;;;;20.13;11.38;;;;;;;;;;6154626;28;20467;-80
2021/09/07 04:36:03;;;;;;;17.45;10.45;;;;;;;;;;6157011;28;20614;-84
2021/09/07 04:39:05;;;;;;;19.65;10.93;;;;;;;;;;6132253;28;20046;-80
2021/09/07 04:42:06;;;;;;;21.25;11.98;;;;;;;;;;6110364;28;20108;-80
2021/09/07 04:45:08;;;;;;;20.35;9.93;;;;;;;;;;6160392;28;20049;-80
2021/09/07 04:48:11;;;;;;;20.25;10.80;;;;;;;;;;6173178;28;20053;-80
2021/09/07 04:51:12;;;;;;;16.88;10.25;;;;;;;;;;6171996;28;20043;-81
2021/09/07 04:54:14;;;;;;;21.52;11.30;;;;;;;;;;6146795;28;20049;-81
2021/09/07 04:57:16;;;;;;;18.48;10.80;;;;;;;;;;6151687;28;20053;-81
2021/09/07 05:00:18;;;;;;;19.20;10.98;;;;;;;;;;6154239;28;20045;-81
2021/09/07 05:03:19;;;;;;;17.30;10.25;;;;;;;;;;6196835;28;20056;-81
2021/09/07 05:06:21;;;;;;;17.55;10.30;;;;;;;;;;6181486;28;20046;-80
2021/09/07 05:09:23;;;;;;;19.08;10.63;;;;;;;;;;6144270;28;20496;-81
2021/09/07 05:12:27;;;;;;;19.77;10.98;;;;;;;;;;6150366;28;20070;-81
2021/09/07 05:15:28;;;;;;;18.13;10.40;;;;;;;;;;6137459;28;20047;-81
2021/09/07 05:18:30;;;;;;;18.30;10.43;;;;;;;;;;6173490;28;20050;-81
2021/09/07 05:21:32;;;;;;;18.35;10.50;;;;;;;;;;6159550;28;20258;-81
2021/09/07 05:24:33;;;;;;;18.60;9.95;;;;;;;;;;6166296;28;20094;-81
2021/09/07 05:27:36;;;;;;;17.63;9.90;;;;;;;;;;6134514;28;20050;-81
2021/09/07 05:30:38;;;;;;;21.50;11.07;;;;;;;;;;6135144;28;20126;-81
2021/09/07 05:33:39;;;;;;;19.00;11.02;;;;;;;;;;6150559;28;20509;-81
2021/09/07 05:36:41;;;;;;;20.58;11.05;;;;;;;;;;6152676;28;20089;-81
2021/09/07 05:39:42;;;;;;;20.30;11.10;;;;;;;;;;6139482;28;20058;-80
2021/09/07 05:42:44;;;;;;;22.02;11.52;;;;;;;;;;6154584;28;20114;-80
2021/09/07 05:45:46;;;;;;;19.60;10.77;;;;;;;;;;6147711;28;20050;-81
2021/09/07 05:48:48;;;;;;;21.27;10.98;;;;;;;;;;6189903;28;20050;-81
2021/09/07 05:51:50;;;;;;;19.83;10.73;;;;;;;;;;6178008;28;20043;-80
2021/09/07 05:54:51;;;;;;;18.33;10.10;;;;;;;;;;6159428;28;20051;-81
2021/09/07 05:57:55;;;;;;;18.20;10.27;;;;;;;;;;6153357;28;20050;-81
2021/09/07 06:00:56;;;;;;;20.90;10.48;;;;;;;;;;6151403;28;20505;-81
2021/09/07 06:04:09;;;;;;;19.17;10.20;;;;;;;;;;6130849;28;20130;-81
2021/09/07 06:07:11;;;;;;;20.83;11.35;;;;;;;;;;6135306;28;20057;-81
2021/09/07 06:10:13;;;;;;;21.10;11.15;;;;;;;;;;6170332;28;20058;-79
2021/09/07 06:13:14;;;;;;;18.83;10.57;;;;;;;;;;6160142;28;20047;-82
2021/09/07 06:16:16;;;;;;;22.00;11.55;;;;;;;;;;6157700;28;20412;-80
2021/09/07 06:19:18;;;;;;;20.75;11.23;;;;;;;;;;6130007;28;20106;-77
2021/09/07 06:22:19;;;;;;;21.02;10.93;;;;;;;;;;6143401;28;20039;-77
2021/09/07 06:25:21;;;;;;;18.95;10.48;;;;;;;;;;6112111;28;20154;-79
2021/09/07 06:28:23;;;;;;;18.63;10.32;;;;;;;;;;6143638;28;20043;-78
2021/09/07 06:31:25;;;;;;;16.58;10.10;;;;;;;;;;6126483;28;20047;-78
2021/09/07 06:34:27;;;;;;;18.88;10.40;;;;;;;;;;6141522;28;20183;-77
2021/09/07 06:37:28;;;;;;;22.08;12.57;;;;;;;;;;6150101;28;20050;-81
2021/09/07 06:40:33;;;;;;;18.83;10.85;;;;;;;;;;6161297;28;20082;-81
2021/09/07 06:43:35;;;;;;;23.10;11.93;;;;;;;;;;6172618;28;20054;-81
2021/09/07 06:46:37;;;;;;;20.38;11.13;;;;;;;;;;6156378;28;20133;-81
2021/09/07 06:49:38;;;;;;;20.27;11.32;;;;;;;;;;6173910;28;20049;-81
2021/09/07 06:52:40;;;;;;;24.63;11.98;;;;;;;;;;6153955;28;20090;-82
2021/09/07 06:55:41;;;;;;;21.38;11.50;;;;;;;;;;6154122;28;20177;-81
2021/09/07 06:58:43;;;;;;;22.65;11.23;;;;;;;;;;6157836;28;20039;-81
2021/09/07 07:01:45;;;;;;;17.65;10.48;;;;;;;;;;6151948;28;20070;-81
2021/09/07 07:04:47;;;;;;;21.98;11.13;;;;;;;;;;6137133;28;20097;-82
2021/09/07 07:07:49;;;;;;;26.23;11.52;;;;;;;;;;6182792;28;20042;-82
2021/09/07 07:10:50;;;;;;;19.17;11.00;;;;;;;;;;6161852;28;20133;-82
2021/09/07 07:13:52;;;;;;;23.48;11.07;;;;;;;;;;6175939;28;20106;-82
2021/09/07 07:16:54;;;;;;;21.63;11.73;;;;;;;;;;6150484;28;20043;-82
2021/09/07 07:20:03;;;;;;;19.50;11.20;;;;;;;;;;6166140;28;20047;-81
2021/09/07 07:23:05;;;;;;;20.88;11.07;;;;;;;;;;6145277;28;20051;-81
2021/09/07 07:26:07;;;;;;;17.65;11.13;;;;;;;;;;6141680;28;20133;-81
2021/09/07 07:29:09;;;;;;;20.10;10.88;;;;;;;;;;6172871;28;20062;-82
2021/09/07 07:32:10;;;;;;;19.13;11.32;;;;;;;;;;6157584;28;20061;-81
2021/09/07 07:35:12;;;;;;;21.05;11.20;;;;;;;;;;6173690;28;20041;-81
2021/09/07 07:38:13;;;;;;;19.38;10.85;;;;;;;;;;6150981;28;20317;-81
2021/09/07 07:41:15;;;;;;;21.73;11.35;;;;;;;;;;6149695;28;20596;-81
2021/09/07 07:44:17;;;;;;;19.00;11.27;;;;;;;;;;6137643;28;20057;-82
2021/09/07 07:47:18;;;;;;;18.70;11.02;;;;;;;;;;6179261;28;20070;-80
2021/09/07 07:50:20;;;;;;;25.38;11.07;;;;;;;;;;6180640;28;20050;-80
2021/09/07 07:53:22;;;;;;;21.73;11.57;;;;;;;;;;6195560;28;20440;-82
2021/09/07 07:56:24;;;;;;;21.98;11.15;;;;;;;;;;6187935;28;20074;-82
2021/09/07 07:59:25;;;;;;;17.83;11.10;;;;;;;;;;6170295;28;20489;-81
2021/09/07 08:02:27;;;;;;;21.10;11.38;;;;;;;;;;6162820;28;20432;-80
2021/09/07 08:05:30;;;;;;;;;;;;;;;;;;6148781;28;20058;-81
2021/09/07 08:08:31;;;;;;;21.95;11.57;;;;;;;;;;6165951;28;19957;-81
2021/09/07 08:11:33;;;;;;;21.98;11.38;;;;;;;;;;6150117;28;20055;-82
2021/09/07 08:14:35;;;;;;;18.65;11.32;;;;;;;;;;6168054;28;20585;-82
2021/09/07 08:17:36;;;;;;;18.27;10.80;;;;;;;;;;6155844;28;20102;-81
2021/09/07 08:20:38;;;;;;;17.73;11.10;;;;;;;;;;6148510;28;20163;-80
2021/09/07 08:23:40;;;;;;;16.75;10.65;;;;;;;;;;6149168;28;20511;-81
2021/09/07 08:26:41;;;;;;;17.83;11.65;;;;;;;;;;6147744;28;20413;-82
2021/09/07 08:29:43;;;;;;;20.08;10.90;;;;;;;;;;6148253;28;20047;-83
2021/09/07 08:32:45;;;;;;;16.85;10.98;;;;;;;;;;6155351;28;20391;-82
2021/09/07 08:35:47;;;;;;;19.30;10.68;;;;;;;;;;6173579;28;20472;-82
2021/09/07 08:38:48;;;;;;;17.73;10.95;;;;;;;;;;6156371;28;20047;-82
2021/09/07 08:41:50;;;;;;;19.27;11.05;;;;;;;;;;6132277;28;20043;-82
2021/09/07 08:44:52;;;;;;;16.13;10.37;;;;;;;;;;6133022;28;20066;-82
2021/09/07 08:47:56;;;;;;;19.05;11.45;;;;;;;;;;6188933;28;20038;-82
2021/09/07 08:50:58;;;;;;;17.95;11.40;;;;;;;;;;6159997;28;20061;-82
2021/09/07 08:54:03;;;;;;;15.68;10.95;;;;;;;;;;6160683;28;20153;-81
2021/09/07 08:57:05;;;;;;;17.05;11.75;;;;;;;;;;6181767;28;20043;-79
2021/09/07 09:00:08;;;;;;;20.13;11.80;;;;;;;;;;6171370;28;20042;-81
2021/09/07 09:03:13;;;;;;;18.20;10.60;;;;;;;;;;6158623;28;20094;-81
2021/09/07 09:06:25;;;;;;;17.60;11.00;;;;;;;;;;6166845;28;20047;-81
2021/09/07 09:09:38;;;;;;;18.00;11.47;;;;;;;;;;6155373;28;20087;-81
2021/09/07 09:12:40;;;;;;;17.50;11.85;;;;;;;;;;6156292;28;20066;-81
2021/09/07 09:16:04;;;;;;;17.20;11.05;;;;;;;;;;6160607;28;20170;-81
2021/09/07 09:19:05;;;;;;;17.05;10.73;;;;;;;;;;6158346;28;20047;-82
2021/09/07 09:22:07;;;;;;;16.27;10.30;;;;;;;;;;6171701;28;20053;-81
2021/09/07 09:25:24;;;;;;;16.70;10.55;;;;;;;;;;6160007;28;20097;-81
2021/09/07 09:28:29;;;;;;;17.77;10.40;;;;;;;;;;6165718;28;20206;-80
2021/09/07 09:31:52;;;;;;;14.88;10.70;;;;;;;;;;6169193;28;20046;-81
2021/09/07 09:35:00;;;;;;;14.18;10.00;;;;;;;;;;6162783;28;20126;-81
2021/09/07 09:38:06;;;;;;;14.93;10.30;;;;;;;;;;6175645;28;20150;-82
2021/09/07 09:41:09;;;;;;;16.58;10.35;;;;;;;;;;6164405;28;20043;-82
2021/09/07 09:44:11;;;;;;;17.02;11.35;;;;;;;;;;6153974;28;20047;-81
2021/09/07 09:47:12;;;;;;;18.65;10.23;;;;;;;;;;6172152;28;20046;-80
2021/09/07 09:50:14;;;;;;;15.15;10.43;;;;;;;;;;6168232;28;20042;-80
2021/09/07 09:53:18;;;;;;;15.88;10.40;;;;;;;;;;6179337;28;20049;-80
2021/09/07 09:56:20;;;;;;;16.25;10.50;;;;;;;;;;6157087;28;20043;-81
2021/09/07 09:59:22;;;;;;;17.00;10.75;;;;;;;;;;6160303;28;20185;-79
2021/09/07 10:02:24;;;;;;;15.20;10.18;;;;;;;;;;6178406;28;20074;-80
2021/09/07 10:05:26;;;;;;;15.85;9.75;;;;;;;;;;6164022;28;20046;-80
2021/09/07 10:08:41;;;;;;;13.80;10.02;;;;;;;;;;6174421;28;20420;-79
2021/09/07 10:11:47;;;;;;;13.38;9.50;;;;;;;;;;6160365;28;20061;-81
2021/09/07 10:15:08;;;;;;;13.10;9.25;;;;;;;;;;6171817;28;20040;-80
2021/09/07 10:18:43;;;;;;;13.20;9.57;;;;;;;;;;6136318;28;20058;-79
2021/09/07 10:24:54;;;;;;;12.30;8.70;;;;;;;;;;6123525;28;20050;-80
2021/09/07 10:28:03;;;;;;;16.00;9.02;;;;;;;;;;6177649;28;20055;-81
2021/09/07 10:31:18;;;;;;;13.90;9.18;;;;;;;;;;6165836;28;20137;-81
2021/09/07 10:34:25;;;;;;;13.00;8.63;;;;;;;;;;6154937;28;20078;-81
2021/09/07 10:38:03;;;;;;;;;;;;;;;;;;6154646;28;20043;-80
2021/09/07 10:41:05;;;;;;;13.05;8.80;;;;;;;;;;6154351;28;19973;-81
2021/09/07 10:44:16;;;;;;;13.50;9.07;;;;;;;;;;6169868;28;20122;-82
2021/09/07 10:47:18;;;;;;;13.63;8.57;;;;;;;;;;6163995;28;20043;-80
2021/09/07 10:50:19;;;;;;;14.88;9.23;;;;;;;;;;6172111;28;20047;-80
2021/09/07 10:53:21;;;;;;;12.57;9.07;;;;;;;;;;6170631;28;20046;-80
2021/09/07 10:56:27;;;;;;;13.55;9.52;;;;;;;;;;6186226;28;20125;-79
2021/09/07 10:59:51;;;;;;;12.60;9.20;;;;;;;;;;6172466;28;20058;-80
2021/09/07 11:02:56;;;;;;;12.95;9.00;;;;;;;;;;6173631;28;20127;-79
2021/09/07 11:05:58;;;;;;;11.65;9.20;;;;;;;;;;6171401;28;20046;-78
2021/09/07 11:09:00;;;;;;;14.13;9.37;;;;;;;;;;6158627;28;20050;-77
2021/09/07 11:12:30;;;;;;;12.70;9.00;;;;;;;;;;6148086;28;20051;-78
2021/09/07 11:15:36;;;;;;;12.32;8.77;;;;;;;;;;6152236;28;20054;-80
2021/09/07 11:18:40;;;;;;;12.93;9.18;;;;;;;;;;6129861;28;20040;-79
2021/09/07 11:21:41;;;;;;;12.80;8.82;;;;;;;;;;6161013;28;20519;-79
2021/09/07 11:24:43;;;;;;;15.60;9.20;;;;;;;;;;6148615;28;20047;-79
2021/09/07 11:27:48;;;;;;;11.23;8.43;;;;;;;;;;6144196;28;20062;-80
2021/09/07 11:30:51;;;;;;;13.43;8.63;;;;;;;;;;6158813;28;20523;-81
2021/09/07 11:33:53;;;;;;;11.52;8.50;;;;;;;;;;6152057;28;20042;-79
2021/09/07 11:36:55;;;;;;;10.68;8.70;;;;;;;;;;6182958;28;20503;-82
2021/09/07 11:40:16;;;;;;;14.23;8.50;;;;;;;;;;6144829;28;20421;-78
2021/09/07 11:43:31;;;;;;;11.00;8.60;;;;;;;;;;6143151;28;20062;-79
2021/09/07 11:46:37;;;;;;;11.95;8.95;;;;;;;;;;6168899;28;20057;-79
2021/09/07 11:49:41;;;;;;;11.85;8.32;;;;;;;;;;6166631;28;20049;-80
2021/09/07 11:52:47;;;;;;;11.60;8.38;;;;;;;;;;6165267;28;20050;-79
2021/09/07 11:55:53;;;;;;;11.27;8.13;;;;;;;;;;6168302;28;20045;-78
2021/09/07 11:59:30;;;;;;;10.48;7.82;;;;;;;;;;6165837;28;20043;-79
2021/09/07 12:02:32;;;;;;;12.88;8.23;;;;;;;;;;6093692;28;20059;-80
2021/09/07 12:05:57;;;;;;;9.93;7.68;;;;;;;;;;6161286;28;20051;-79
2021/09/07 12:09:16;;;;;;;10.07;7.50;;;;;;;;;;6160460;28;20049;-81
2021/09/07 12:12:18;;;;;;;11.65;7.82;;;;;;;;;;6148459;28;20051;-80
2021/09/07 12:15:20;;;;;;;12.98;8.35;;;;;;;;;;6152251;28;20066;-78
2021/09/07 12:18:40;;;;;;;12.57;9.00;;;;;;;;;;6147238;28;20039;-79
2021/09/07 12:21:42;;;;;;;12.93;8.95;;;;;;;;;;6147540;28;20050;-77
2021/09/07 12:25:06;;;;;;;11.63;7.00;;;;;;;;;;6142722;28;20050;-79
2021/09/07 12:28:17;;;;;;;11.45;7.93;;;;;;;;;;6143776;28;20130;-80
2021/09/07 12:31:22;;;;;;;10.90;7.95;;;;;;;;;;6166624;28;20194;-78
2021/09/07 12:34:23;;;;;;;10.05;8.00;;;;;;;;;;6167847;28;20051;-77
2021/09/07 12:37:25;;;;;;;13.87;8.20;;;;;;;;;;6165910;28;20053;-79
2021/09/07 12:40:27;;;;;;;10.10;6.97;;;;;;;;;;6156694;28;20055;-79
2021/09/07 12:43:47;;;;;;;11.55;7.53;;;;;;;;;;6140108;28;20075;-78
2021/09/07 12:46:49;;;;;;;10.95;7.78;;;;;;;;;;6162896;28;20043;-79
2021/09/07 12:49:53;;;;;;;11.05;6.82;;;;;;;;;;6165204;28;20061;-79
2021/09/07 12:52:54;;;;;;;8.82;6.93;;;;;;;;;;6160408;28;20127;-78
2021/09/07 12:55:56;;;;;;;7.30;6.50;;;;;;;;;;6162653;28;20049;-79
2021/09/07 12:59:04;;;;;;;8.95;7.10;;;;;;;;;;6143952;28;20051;-78
2021/09/07 13:02:06;;;;;;;8.95;6.15;;;;;;;;;;6160752;28;20133;-78
2021/09/07 13:05:08;;;;;;;7.80;5.80;;;;;;;;;;6144011;28;20046;-79
2021/09/07 13:08:12;;;;;;;12.20;7.45;;;;;;;;;;6155680;28;20796;-77
2021/09/07 13:11:15;;;;;;;10.07;6.97;;;;;;;;;;6141459;28;20051;-80
2021/09/07 13:14:17;;;;;;;8.07;5.60;;;;;;;;;;6142921;28;20153;-79
2021/09/07 13:17:18;;;;;;;7.53;6.22;;;;;;;;;;6142555;28;20122;-79
2021/09/07 13:20:20;;;;;;;7.63;6.37;;;;;;;;;;6125572;28;20048;-79
2021/09/07 13:23:22;;;;;;;9.60;6.57;;;;;;;;;;6138279;28;20053;-79
2021/09/07 13:26:23;;;;;;;10.63;7.18;;;;;;;;;;6141833;29;20065;-79
2021/09/07 13:29:25;;;;;;;9.50;6.70;;;;;;;;;;6143399;28;20038;-80
2021/09/07 13:32:27;;;;;;;8.00;6.13;;;;;;;;;;6167076;28;20062;-80
2021/09/07 13:35:28;;;;;;;8.47;6.53;;;;;;;;;;6182894;28;20058;-79
2021/09/07 13:38:30;;;;;;;9.03;6.40;;;;;;;;;;6157706;28;20943;-82
2021/09/07 13:41:32;;;;;;;8.18;6.72;;;;;;;;;;6172982;28;20526;-80
2021/09/07 13:44:34;;;;;;;9.90;6.78;;;;;;;;;;6162470;28;20059;-82
2021/09/07 13:47:44;;;;;;;8.40;6.20;;;;;;;;;;6152028;28;20050;-82
2021/09/07 13:50:46;;;;;;;7.75;5.78;;;;;;;;;;6172918;28;20442;-84
2021/09/07 13:53:48;;;;;;;9.50;6.55;;;;;;;;;;6177560;28;20051;-82
2021/09/07 13:56:49;;;;;;;7.78;6.50;;;;;;;;;;6189247;28;20051;-84
2021/09/07 13:59:51;;;;;;;10.05;7.57;;;;;;;;;;6168508;28;20043;-83
2021/09/07 14:02:52;;;;;;;9.05;7.47;;;;;;;;;;6190609;28;20046;-81
2021/09/07 14:05:54;;;;;;;9.38;7.35;;;;;;;;;;6166795;28;20061;-81
2021/09/07 14:08:56;;;;;;;9.05;6.63;;;;;;;;;;6171950;28;20065;-81
2021/09/07 14:11:58;;;;;;;8.55;6.10;;;;;;;;;;6161938;28;20039;-83
2021/09/07 14:14:59;;;;;;;9.77;6.93;;;;;;;;;;6172731;28;20133;-82
2021/09/07 14:18:05;;;;;;;8.57;6.78;;;;;;;;;;6193863;28;20057;-81
2021/09/07 14:21:07;;;;;;;10.15;6.68;;;;;;;;;;6180667;28;20038;-81
2021/09/07 14:24:09;;;;;;;7.95;6.45;;;;;;;;;;6179273;28;20148;-81
2021/09/07 14:27:10;;;;;;;9.10;6.55;;;;;;;;;;6161609;28;20066;-81
2021/09/07 14:30:13;;;;;;;8.77;5.90;;;;;;;;;;6175421;28;20061;-81
2021/09/07 14:33:14;;;;;;;8.00;6.38;;;;;;;;;;6192145;28;20039;-81
2021/09/07 14:36:16;;;;;;;9.23;6.55;;;;;;;;;;6192621;28;20066;-81
2021/09/07 14:39:18;;;;;;;9.83;6.00;;;;;;;;;;6191206;28;20054;-81
2021/09/07 14:42:20;;;;;;;11.75;6.55;;;;;;;;;;6174616;28;20038;-81
2021/09/07 14:45:22;;;;;;;7.35;6.20;;;;;;;;;;6188832;28;20070;-80
2021/09/07 14:48:24;;;;;;;9.65;6.40;;;;;;;;;;6173648;28;20057;-81
2021/09/07 14:51:26;;;;;;;8.73;6.30;;;;;;;;;;6170259;28;20066;-81
2021/09/07 14:54:27;;;;;;;7.57;6.18;;;;;;;;;;6169335;28;20498;-80
2021/09/07 14:57:29;;;;;;;7.60;6.07;;;;;;;;;;6177190;28;20065;-81
2021/09/07 15:00:30;;;;;;;8.70;6.20;;;;;;;;;;6188677;28;20165;-80
2021/09/07 15:03:32;;;;;;;8.88;6.10;;;;;;;;;;6187479;28;20050;-81
2021/09/07 15:06:34;;;;;;;6.75;5.35;;;;;;;;;;6192456;28;20070;-80
2021/09/07 15:09:36;;;;;;;6.43;5.20;;;;;;;;;;6167934;28;20049;-81
2021/09/07 15:12:37;;;;;;;9.07;5.83;;;;;;;;;;6174088;28;20518;-81
2021/09/07 15:15:39;;;;;;;8.60;5.87;;;;;;;;;;6175372;28;20561;-80
2021/09/07 15:18:41;;;;;;;8.50;5.95;;;;;;;;;;6193778;28;20640;-81
2021/09/07 15:21:42;;;;;;;8.63;6.10;;;;;;;;;;6176572;28;20049;-82
2021/09/07 15:24:44;;;;;;;8.75;5.65;;;;;;;;;;6186835;28;20035;-82
2021/09/07 15:27:47;;;;;;;8.30;5.93;;;;;;;;;;6174370;28;20046;-80
2021/09/07 15:30:49;;;;;;;9.52;6.82;;;;;;;;;;6171942;28;20057;-82
2021/09/07 15:33:51;;;;;;;9.45;7.18;;;;;;;;;;6159538;28;20047;-83
2021/09/07 15:36:54;;;;;;;11.43;8.07;;;;;;;;;;6173455;28;20066;-81
2021/09/07 15:40:01;;;;;;;10.45;7.63;;;;;;;;;;6186969;28;20496;-82
2021/09/07 15:43:03;;;;;;;11.57;8.60;;;;;;;;;;6171489;28;20054;-81
2021/09/07 15:46:04;;;;;;;10.60;7.70;;;;;;;;;;6167457;28;20090;-80
2021/09/07 15:49:06;;;;;;;10.87;8.77;;;;;;;;;;6178740;28;20066;-83
2021/09/07 15:52:08;;;;;;;9.37;7.50;;;;;;;;;;6187148;28;20053;-79
2021/09/07 15:55:09;;;;;;;11.93;8.38;;;;;;;;;;6170734;28;20062;-80
2021/09/07 15:58:11;;;;;;;10.85;7.70;;;;;;;;;;6146239;28;20053;-79
2021/09/07 16:01:13;;;;;;;11.93;8.47;;;;;;;;;;6162731;28;20255;-80
2021/09/07 16:04:15;;;;;;;11.15;7.97;;;;;;;;;;6182612;28;20057;-80
2021/09/07 16:07:16;;;;;;;12.90;8.10;;;;;;;;;;6166804;28;20047;-79
2021/09/07 16:10:20;;;;;;;12.15;7.70;;;;;;;;;;6149681;28;20051;-81
2021/09/07 16:13:22;;;;;;;12.03;7.80;;;;;;;;;;6175682;28;20085;-79
2021/09/07 16:16:24;;;;;;;13.15;7.55;;;;;;;;;;6151882;28;20462;-79
2021/09/07 16:19:26;;;;;;;11.50;7.85;;;;;;;;;;6131226;28;20043;-79
2021/09/07 16:22:27;;;;;;;11.70;7.78;;;;;;;;;;6155911;28;20054;-78
2021/09/07 16:25:30;;;;;;;10.77;7.75;;;;;;;;;;6150335;28;20054;-79
2021/09/07 16:28:33;;;;;;;11.45;7.82;;;;;;;;;;6124933;28;20055;-78
2021/09/07 16:31:38;;;;;;;11.95;8.20;;;;;;;;;;6144939;28;20066;-78
2021/09/07 16:34:40;;;;;;;11.35;7.43;;;;;;;;;;6165414;28;20070;-79
2021/09/07 16:37:42;;;;;;;10.73;7.32;;;;;;;;;;6153689;28;20046;-79
2021/09/07 16:40:43;;;;;;;10.27;7.30;;;;;;;;;;6158904;28;20042;-79
2021/09/07 16:43:45;;;;;;;10.30;7.80;;;;;;;;;;6166521;28;20053;-80
2021/09/07 16:46:48;;;;;;;11.13;7.53;;;;;;;;;;6184070;28;20182;-80
2021/09/07 16:49:51;;;;;;;11.30;7.85;;;;;;;;;;6190006;28;20046;-80
2021/09/07 16:53:04;;;;;;;13.40;8.50;;;;;;;;;;6175226;28;20061;-80
2021/09/07 16:56:06;;;;;;;14.25;7.57;;;;;;;;;;6161990;28;20129;-80
2021/09/07 16:59:08;;;;;;;12.35;7.43;;;;;;;;;;6187465;28;20039;-80
2021/09/07 17:02:09;;;;;;;11.57;7.97;;;;;;;;;;6150366;28;20069;-79
2021/09/07 17:05:12;;;;;;;12.80;7.95;;;;;;;;;;6185505;28;20122;-81
2021/09/07 17:08:22;;;;;;;11.77;7.33;;;;;;;;;;6168194;28;20470;-81
2021/09/07 17:11:25;;;;;;;10.82;7.43;;;;;;;;;;6189801;28;20065;-81
2021/09/07 17:14:26;;;;;;;13.70;8.02;;;;;;;;;;6170027;28;20054;-81
2021/09/07 17:17:28;;;;;;;13.75;7.28;;;;;;;;;;6189194;28;20126;-82
2021/09/07 17:20:32;;;;;;;11.27;7.80;;;;;;;;;;6178450;28;20057;-82
2021/09/07 17:23:34;;;;;;;15.25;6.85;;;;;;;;;;6171603;28;20066;-82
2021/09/07 17:26:35;;;;;;;15.80;11.00;;;;;;;;;;6172212;28;20062;-80
2021/09/07 17:29:37;;;;;;;25.20;15.02;;;;;;;;;;6162815;28;20046;-82
2021/09/07 17:33:06;;;;;;;20.17;14.32;;;;;;;;;;6161743;28;20043;-82
2021/09/07 17:36:18;;;;;;;19.40;12.30;;;;;;;;;;6187786;28;20042;-82
2021/09/07 17:42:42;;;;;;;17.23;9.63;;;;;;;;;;6170235;28;20043;-82
2021/09/07 17:45:45;;;;;;;15.52;8.85;;;;;;;;;;6165971;28;20057;-82
2021/09/07 17:48:47;;;;;;;12.55;7.95;;;;;;;;;;6187416;28;20066;-82
2021/09/07 17:51:51;;;;;;;14.23;7.95;;;;;;;;;;6187992;28;20534;-83
2021/09/07 17:54:53;;;;;;;10.38;7.10;;;;;;;;;;6161159;28;20067;-82
2021/09/07 17:57:55;;;;;;;11.75;7.43;;;;;;;;;;6130006;28;20081;-82
2021/09/07 18:00:57;;;;;;;12.50;7.25;;;;;;;;;;6159841;28;20117;-82
2021/09/07 18:04:16;;;;;;;12.48;7.50;;;;;;;;;;6126035;29;20055;-83
2021/09/07 18:07:18;;;;;;;12.13;7.33;;;;;;;;;;6121745;28;20051;-83